sensor_id;sensor_type;location;lat;lon;timestamp;P1;durP1;ratioP1;P2;durP2;ratioP2
21183;SDS011;18176;49.502;11.754;2022-11-15T00:01:30;32.00;;;20.83;;
21183;SDS011;18176;49.502;11.754;2022-11-15T00:05:50;31.47;;;19.80;;
21183;SDS011;18176;49.502;11.754;2022-11-15T00:10:09;29.47;;;19.23;;
21183;SDS011;18176;49.502;11.754;2022-11-15T00:14:28;30.30;;;19.07;;
21183;SDS011;18176;49.502;11.754;2022-11-15T00:18:49;28.87;;;18.50;;
21183;SDS011;18176;49.502;11.754;2022-11-15T00:23:08;29.50;;;18.43;;
21183;SDS011;18176;49.502;11.754;2022-11-15T00:27:28;33.13;;;19.13;;
21183;SDS011;18176;49.502;11.754;2022-11-15T00:31:46;28.87;;;18.57;;
21183;SDS011;18176;49.502;11.754;2022-11-15T00:36:08;31.87;;;18.73;;
21183;SDS011;18176;49.502;11.754;2022-11-15T00:40:28;29.07;;;18.67;;
21183;SDS011;18176;49.502;11.754;2022-11-15T00:44:47;26.17;;;18.43;;
21183;SDS011;18176;49.502;11.754;2022-11-15T00:49:06;30.03;;;19.20;;
21183;SDS011;18176;49.502;11.754;2022-11-15T00:53:27;33.73;;;19.10;;
21183;SDS011;18176;49.502;11.754;2022-11-15T00:57:46;29.77;;;18.97;;
21183;SDS011;18176;49.502;11.754;2022-11-15T01:02:05;28.80;;;18.70;;
21183;SDS011;18176;49.502;11.754;2022-11-15T01:06:24;29.40;;;18.03;;
21183;SDS011;18176;49.502;11.754;2022-11-15T01:10:45;28.40;;;18.63;;
21183;SDS011;18176;49.502;11.754;2022-11-15T01:15:04;25.97;;;18.13;;
21183;SDS011;18176;49.502;11.754;2022-11-15T01:19:24;30.10;;;18.07;;
21183;SDS011;18176;49.502;11.754;2022-11-15T01:23:43;26.23;;;17.00;;
21183;SDS011;18176;49.502;11.754;2022-11-15T01:28:04;23.60;;;15.80;;
21183;SDS011;18176;49.502;11.754;2022-11-15T01:32:23;30.43;;;19.30;;
21183;SDS011;18176;49.502;11.754;2022-11-15T01:36:42;25.60;;;16.63;;
21183;SDS011;18176;49.502;11.754;2022-11-15T01:41:00;28.37;;;18.60;;
21183;SDS011;18176;49.502;11.754;2022-11-15T01:45:23;24.03;;;15.57;;
21183;SDS011;18176;49.502;11.754;2022-11-15T01:49:44;24.40;;;16.70;;
21183;SDS011;18176;49.502;11.754;2022-11-15T01:54:12;24.97;;;16.27;;
21183;SDS011;18176;49.502;11.754;2022-11-15T01:58:37;25.93;;;16.90;;
21183;SDS011;18176;49.502;11.754;2022-11-15T02:03:01;24.47;;;16.63;;
21183;SDS011;18176;49.502;11.754;2022-11-15T02:07:20;27.97;;;17.60;;
21183;SDS011;18176;49.502;11.754;2022-11-15T02:11:42;25.83;;;16.80;;
21183;SDS011;18176;49.502;11.754;2022-11-15T02:16:05;25.30;;;16.87;;
21183;SDS011;18176;49.502;11.754;2022-11-15T02:25:37;27.23;;;17.37;;
21183;SDS011;18176;49.502;11.754;2022-11-15T02:30:21;24.20;;;16.27;;
21183;SDS011;18176;49.502;11.754;2022-11-15T02:34:46;25.57;;;16.97;;
21183;SDS011;18176;49.502;11.754;2022-11-15T02:39:15;23.97;;;16.60;;
21183;SDS011;18176;49.502;11.754;2022-11-15T02:43:44;26.10;;;16.10;;
21183;SDS011;18176;49.502;11.754;2022-11-15T02:48:17;32.93;;;18.70;;
21183;SDS011;18176;49.502;11.754;2022-11-15T02:52:39;30.97;;;17.30;;
21183;SDS011;18176;49.502;11.754;2022-11-15T02:56:58;28.10;;;17.63;;
21183;SDS011;18176;49.502;11.754;2022-11-15T03:01:24;44.57;;;24.83;;
21183;SDS011;18176;49.502;11.754;2022-11-15T03:06:03;46.97;;;26.83;;
21183;SDS011;18176;49.502;11.754;2022-11-15T03:10:41;48.27;;;26.23;;
21183;SDS011;18176;49.502;11.754;2022-11-15T03:15:11;36.07;;;22.17;;
21183;SDS011;18176;49.502;11.754;2022-11-15T03:19:38;36.70;;;21.60;;
21183;SDS011;18176;49.502;11.754;2022-11-15T03:24:06;41.80;;;24.00;;
21183;SDS011;18176;49.502;11.754;2022-11-15T03:28:28;39.30;;;23.07;;
21183;SDS011;18176;49.502;11.754;2022-11-15T03:32:57;38.20;;;21.17;;
21183;SDS011;18176;49.502;11.754;2022-11-15T03:37:22;36.97;;;21.40;;
21183;SDS011;18176;49.502;11.754;2022-11-15T03:41:51;33.30;;;20.47;;
21183;SDS011;18176;49.502;11.754;2022-11-15T03:46:23;36.63;;;22.43;;
21183;SDS011;18176;49.502;11.754;2022-11-15T03:50:46;35.57;;;21.87;;
21183;SDS011;18176;49.502;11.754;2022-11-15T03:55:07;38.20;;;23.10;;
21183;SDS011;18176;49.502;11.754;2022-11-15T03:59:33;38.60;;;23.47;;
21183;SDS011;18176;49.502;11.754;2022-11-15T04:03:52;59.83;;;23.67;;
21183;SDS011;18176;49.502;11.754;2022-11-15T04:08:10;38.23;;;23.43;;
21183;SDS011;18176;49.502;11.754;2022-11-15T04:12:29;34.67;;;20.93;;
21183;SDS011;18176;49.502;11.754;2022-11-15T04:16:53;50.90;;;22.53;;
21183;SDS011;18176;49.502;11.754;2022-11-15T04:21:12;41.60;;;22.20;;
21183;SDS011;18176;49.502;11.754;2022-11-15T04:25:43;39.33;;;23.47;;
21183;SDS011;18176;49.502;11.754;2022-11-15T04:30:05;40.50;;;21.13;;
21183;SDS011;18176;49.502;11.754;2022-11-15T04:34:28;33.33;;;21.53;;
21183;SDS011;18176;49.502;11.754;2022-11-15T04:38:47;249.63;;;26.07;;
21183;SDS011;18176;49.502;11.754;2022-11-15T04:43:06;78.53;;;19.90;;
21183;SDS011;18176;49.502;11.754;2022-11-15T04:47:25;62.23;;;21.37;;
21183;SDS011;18176;49.502;11.754;2022-11-15T04:51:47;114.27;;;24.30;;
21183;SDS011;18176;49.502;11.754;2022-11-15T04:56:06;49.37;;;22.90;;
21183;SDS011;18176;49.502;11.754;2022-11-15T05:00:25;62.90;;;23.73;;
21183;SDS011;18176;49.502;11.754;2022-11-15T05:04:45;62.67;;;23.60;;
21183;SDS011;18176;49.502;11.754;2022-11-15T05:09:06;47.93;;;23.50;;
21183;SDS011;18176;49.502;11.754;2022-11-15T05:13:25;58.80;;;20.43;;
21183;SDS011;18176;49.502;11.754;2022-11-15T05:17:45;31.37;;;19.37;;
21183;SDS011;18176;49.502;11.754;2022-11-15T05:22:03;34.60;;;21.00;;
21183;SDS011;18176;49.502;11.754;2022-11-15T05:26:24;28.93;;;18.37;;
21183;SDS011;18176;49.502;11.754;2022-11-15T05:30:43;85.10;;;34.97;;
21183;SDS011;18176;49.502;11.754;2022-11-15T05:35:02;90.50;;;41.77;;
21183;SDS011;18176;49.502;11.754;2022-11-15T05:39:26;118.80;;;53.57;;
21183;SDS011;18176;49.502;11.754;2022-11-15T05:43:47;69.77;;;35.03;;
21183;SDS011;18176;49.502;11.754;2022-11-15T05:48:08;60.73;;;26.80;;
21183;SDS011;18176;49.502;11.754;2022-11-15T05:52:29;48.40;;;24.00;;
21183;SDS011;18176;49.502;11.754;2022-11-15T05:56:53;36.47;;;22.00;;
21183;SDS011;18176;49.502;11.754;2022-11-15T06:01:14;68.43;;;23.10;;
21183;SDS011;18176;49.502;11.754;2022-11-15T06:05:33;74.47;;;24.83;;
21183;SDS011;18176;49.502;11.754;2022-11-15T06:09:53;33.17;;;20.77;;
21183;SDS011;18176;49.502;11.754;2022-11-15T06:14:11;33.83;;;20.57;;
21183;SDS011;18176;49.502;11.754;2022-11-15T06:18:34;232.87;;;23.90;;
21183;SDS011;18176;49.502;11.754;2022-11-15T06:22:56;24.17;;;15.43;;
21183;SDS011;18176;49.502;11.754;2022-11-15T06:27:15;37.57;;;17.80;;
21183;SDS011;18176;49.502;11.754;2022-11-15T06:31:34;105.47;;;23.27;;
21183;SDS011;18176;49.502;11.754;2022-11-15T06:35:55;76.93;;;21.63;;
21183;SDS011;18176;49.502;11.754;2022-11-15T06:40:19;57.37;;;21.00;;
21183;SDS011;18176;49.502;11.754;2022-11-15T06:44:38;52.73;;;23.20;;
21183;SDS011;18176;49.502;11.754;2022-11-15T06:48:56;42.40;;;20.60;;
21183;SDS011;18176;49.502;11.754;2022-11-15T06:53:25;125.77;;;21.97;;
21183;SDS011;18176;49.502;11.754;2022-11-15T06:57:46;131.77;;;19.87;;
21183;SDS011;18176;49.502;11.754;2022-11-15T07:02:06;52.40;;;17.00;;
21183;SDS011;18176;49.502;11.754;2022-11-15T07:06:30;29.43;;;17.60;;
21183;SDS011;18176;49.502;11.754;2022-11-15T07:11:03;19.23;;;13.83;;
21183;SDS011;18176;49.502;11.754;2022-11-15T07:15:28;22.90;;;14.20;;
21183;SDS011;18176;49.502;11.754;2022-11-15T07:19:48;116.00;;;17.80;;
21183;SDS011;18176;49.502;11.754;2022-11-15T07:24:07;262.53;;;19.80;;
21183;SDS011;18176;49.502;11.754;2022-11-15T07:28:28;47.27;;;13.33;;
21183;SDS011;18176;49.502;11.754;2022-11-15T07:32:51;93.00;;;14.90;;
21183;SDS011;18176;49.502;11.754;2022-11-15T07:37:12;15.97;;;12.73;;
21183;SDS011;18176;49.502;11.754;2022-11-15T07:41:32;62.47;;;14.57;;
21183;SDS011;18176;49.502;11.754;2022-11-15T07:45:55;36.63;;;13.13;;
21183;SDS011;18176;49.502;11.754;2022-11-15T07:50:17;25.80;;;13.60;;
21183;SDS011;18176;49.502;11.754;2022-11-15T07:54:37;21.50;;;13.23;;
21183;SDS011;18176;49.502;11.754;2022-11-15T07:58:57;28.27;;;15.30;;
21183;SDS011;18176;49.502;11.754;2022-11-15T08:03:26;48.53;;;14.57;;
21183;SDS011;18176;49.502;11.754;2022-11-15T08:07:45;55.47;;;12.90;;
21183;SDS011;18176;49.502;11.754;2022-11-15T08:12:06;36.23;;;13.57;;
21183;SDS011;18176;49.502;11.754;2022-11-15T08:16:25;59.03;;;12.83;;
21183;SDS011;18176;49.502;11.754;2022-11-15T08:20:46;77.30;;;16.00;;
21183;SDS011;18176;49.502;11.754;2022-11-15T08:25:05;32.37;;;15.00;;
21183;SDS011;18176;49.502;11.754;2022-11-15T08:29:25;85.87;;;31.30;;
21183;SDS011;18176;49.502;11.754;2022-11-15T08:33:45;75.20;;;31.63;;
21183;SDS011;18176;49.502;11.754;2022-11-15T08:38:06;45.40;;;26.43;;
21183;SDS011;18176;49.502;11.754;2022-11-15T08:42:26;89.53;;;38.20;;
21183;SDS011;18176;49.502;11.754;2022-11-15T08:46:45;59.70;;;30.07;;
21183;SDS011;18176;49.502;11.754;2022-11-15T08:51:04;46.27;;;23.77;;
21183;SDS011;18176;49.502;11.754;2022-11-15T08:55:38;31.70;;;18.07;;
21183;SDS011;18176;49.502;11.754;2022-11-15T08:59:58;21.47;;;14.37;;
21183;SDS011;18176;49.502;11.754;2022-11-15T09:04:19;22.80;;;14.23;;
21183;SDS011;18176;49.502;11.754;2022-11-15T09:08:38;19.53;;;13.73;;
21183;SDS011;18176;49.502;11.754;2022-11-15T09:13:06;18.90;;;13.60;;
21183;SDS011;18176;49.502;11.754;2022-11-15T09:17:29;24.10;;;13.00;;
21183;SDS011;18176;49.502;11.754;2022-11-15T09:21:49;19.80;;;13.40;;
21183;SDS011;18176;49.502;11.754;2022-11-15T09:26:08;23.37;;;15.70;;
21183;SDS011;18176;49.502;11.754;2022-11-15T09:30:32;19.10;;;12.80;;
21183;SDS011;18176;49.502;11.754;2022-11-15T09:46:00;17.70;;;11.90;;
21183;SDS011;18176;49.502;11.754;2022-11-15T09:51:12;14.13;;;10.57;;
21183;SDS011;18176;49.502;11.754;2022-11-15T09:56:18;13.67;;;10.27;;
21183;SDS011;18176;49.502;11.754;2022-11-15T10:00:31;14.20;;;10.17;;
21183;SDS011;18176;49.502;11.754;2022-11-15T10:04:48;14.40;;;10.80;;
21183;SDS011;18176;49.502;11.754;2022-11-15T10:08:51;14.10;;;10.40;;
21183;SDS011;18176;49.502;11.754;2022-11-15T10:12:59;16.13;;;10.57;;
21183;SDS011;18176;49.502;11.754;2022-11-15T10:21:53;16.75;;;11.65;;
21183;SDS011;18176;49.502;11.754;2022-11-15T10:26:08;14.55;;;10.20;;
21183;SDS011;18176;49.502;11.754;2022-11-15T10:30:16;16.50;;;10.57;;
21183;SDS011;18176;49.502;11.754;2022-11-15T10:34:22;18.08;;;11.88;;
21183;SDS011;18176;49.502;11.754;2022-11-15T10:38:28;21.15;;;12.25;;
21183;SDS011;18176;49.502;11.754;2022-11-15T10:42:29;18.50;;;12.35;;
21183;SDS011;18176;49.502;11.754;2022-11-15T10:46:30;16.80;;;10.80;;
21183;SDS011;18176;49.502;11.754;2022-11-15T10:50:43;14.90;;;11.02;;
21183;SDS011;18176;49.502;11.754;2022-11-15T10:54:50;18.50;;;11.27;;
21183;SDS011;18176;49.502;11.754;2022-11-15T10:58:57;20.50;;;13.68;;
21183;SDS011;18176;49.502;11.754;2022-11-15T11:03:01;23.70;;;16.73;;
21183;SDS011;18176;49.502;11.754;2022-11-15T11:07:29;17.00;;;12.30;;
21183;SDS011;18176;49.502;11.754;2022-11-15T11:11:46;25.50;;;14.57;;
21183;SDS011;18176;49.502;11.754;2022-11-15T11:15:52;20.30;;;14.98;;
21183;SDS011;18176;49.502;11.754;2022-11-15T11:20:07;26.95;;;17.75;;
21183;SDS011;18176;49.502;11.754;2022-11-15T11:24:21;18.05;;;14.00;;
21183;SDS011;18176;49.502;11.754;2022-11-15T11:28:38;19.20;;;13.95;;
21183;SDS011;18176;49.502;11.754;2022-11-15T11:32:53;16.10;;;10.98;;
21183;SDS011;18176;49.502;11.754;2022-11-15T11:37:09;17.35;;;11.90;;
21183;SDS011;18176;49.502;11.754;2022-11-15T11:41:23;16.27;;;12.43;;
21183;SDS011;18176;49.502;11.754;2022-11-15T11:45:56;14.52;;;11.45;;
21183;SDS011;18176;49.502;11.754;2022-11-15T11:50:13;17.50;;;12.95;;
21183;SDS011;18176;49.502;11.754;2022-11-15T11:54:20;20.80;;;14.63;;
21183;SDS011;18176;49.502;11.754;2022-11-15T11:58:32;22.88;;;16.98;;
21183;SDS011;18176;49.502;11.754;2022-11-15T12:02:41;20.33;;;15.70;;
21183;SDS011;18176;49.502;11.754;2022-11-15T12:06:48;15.32;;;11.52;;
21183;SDS011;18176;49.502;11.754;2022-11-15T12:10:53;15.15;;;11.43;;
21183;SDS011;18176;49.502;11.754;2022-11-15T12:15:10;19.33;;;13.05;;
21183;SDS011;18176;49.502;11.754;2022-11-15T12:19:18;14.00;;;11.05;;
21183;SDS011;18176;49.502;11.754;2022-11-15T12:23:19;14.18;;;10.50;;
21183;SDS011;18176;49.502;11.754;2022-11-15T12:27:26;16.48;;;12.48;;
21183;SDS011;18176;49.502;11.754;2022-11-15T12:31:36;17.58;;;13.95;;
21183;SDS011;18176;49.502;11.754;2022-11-15T12:35:43;19.80;;;14.07;;
21183;SDS011;18176;49.502;11.754;2022-11-15T12:40:04;12.50;;;9.45;;
21183;SDS011;18176;49.502;11.754;2022-11-15T12:48:58;12.43;;;8.05;;
21183;SDS011;18176;49.502;11.754;2022-11-15T12:57:40;12.90;;;8.43;;
21183;SDS011;18176;49.502;11.754;2022-11-15T13:01:55;12.20;;;9.32;;
21183;SDS011;18176;49.502;11.754;2022-11-15T13:06:04;11.25;;;8.30;;
21183;SDS011;18176;49.502;11.754;2022-11-15T13:14:44;10.57;;;6.38;;
21183;SDS011;18176;49.502;11.754;2022-11-15T13:18:53;8.38;;;6.50;;
21183;SDS011;18176;49.502;11.754;2022-11-15T13:23:02;10.88;;;7.60;;
21183;SDS011;18176;49.502;11.754;2022-11-15T13:27:13;13.80;;;6.88;;
21183;SDS011;18176;49.502;11.754;2022-11-15T13:31:26;11.55;;;8.27;;
21183;SDS011;18176;49.502;11.754;2022-11-15T13:35:36;12.88;;;9.93;;
21183;SDS011;18176;49.502;11.754;2022-11-15T13:39:40;13.43;;;9.73;;
21183;SDS011;18176;49.502;11.754;2022-11-15T13:43:45;11.90;;;8.65;;
21183;SDS011;18176;49.502;11.754;2022-11-15T13:47:54;17.92;;;11.43;;
21183;SDS011;18176;49.502;11.754;2022-11-15T13:51:57;16.25;;;10.40;;
21183;SDS011;18176;49.502;11.754;2022-11-15T13:56:00;19.77;;;12.95;;
21183;SDS011;18176;49.502;11.754;2022-11-15T14:00:24;23.83;;;14.48;;
21183;SDS011;18176;49.502;11.754;2022-11-15T14:04:38;31.08;;;16.90;;
21183;SDS011;18176;49.502;11.754;2022-11-15T14:13:39;11.63;;;7.80;;
21183;SDS011;18176;49.502;11.754;2022-11-15T14:18:05;11.48;;;7.30;;
21183;SDS011;18176;49.502;11.754;2022-11-15T14:22:17;9.73;;;6.75;;
21183;SDS011;18176;49.502;11.754;2022-11-15T14:26:27;13.35;;;8.50;;
21183;SDS011;18176;49.502;11.754;2022-11-15T14:30:35;8.23;;;6.50;;
21183;SDS011;18176;49.502;11.754;2022-11-15T14:34:42;11.68;;;7.97;;
21183;SDS011;18176;49.502;11.754;2022-11-15T14:38:44;28.40;;;15.88;;
21183;SDS011;18176;49.502;11.754;2022-11-15T14:42:52;22.85;;;14.32;;
21183;SDS011;18176;49.502;11.754;2022-11-15T14:46:52;23.17;;;13.95;;
21183;SDS011;18176;49.502;11.754;2022-11-15T14:50:59;25.38;;;15.02;;
21183;SDS011;18176;49.502;11.754;2022-11-15T14:55:10;12.38;;;8.95;;
21183;SDS011;18176;49.502;11.754;2022-11-15T14:59:18;9.63;;;6.65;;
21183;SDS011;18176;49.502;11.754;2022-11-15T15:03:19;11.05;;;6.28;;
21183;SDS011;18176;49.502;11.754;2022-11-15T15:07:24;8.45;;;6.20;;
21183;SDS011;18176;49.502;11.754;2022-11-15T15:11:29;9.20;;;6.38;;
21183;SDS011;18176;49.502;11.754;2022-11-15T15:15:33;8.75;;;6.22;;
21183;SDS011;18176;49.502;11.754;2022-11-15T15:19:35;10.00;;;6.07;;
21183;SDS011;18176;49.502;11.754;2022-11-15T15:23:39;7.45;;;5.88;;
21183;SDS011;18176;49.502;11.754;2022-11-15T15:27:40;8.57;;;5.85;;
21183;SDS011;18176;49.502;11.754;2022-11-15T15:31:40;9.55;;;5.72;;
21183;SDS011;18176;49.502;11.754;2022-11-15T15:35:41;10.93;;;6.47;;
21183;SDS011;18176;49.502;11.754;2022-11-15T15:39:44;17.50;;;11.03;;
21183;SDS011;18176;49.502;11.754;2022-11-15T15:43:44;20.43;;;12.67;;
21183;SDS011;18176;49.502;11.754;2022-11-15T15:47:45;21.00;;;13.73;;
21183;SDS011;18176;49.502;11.754;2022-11-15T15:51:46;23.20;;;13.13;;
21183;SDS011;18176;49.502;11.754;2022-11-15T15:55:49;20.80;;;12.53;;
21183;SDS011;18176;49.502;11.754;2022-11-15T15:59:49;16.50;;;10.17;;
21183;SDS011;18176;49.502;11.754;2022-11-15T16:03:49;42.80;;;22.33;;
21183;SDS011;18176;49.502;11.754;2022-11-15T16:07:49;46.00;;;23.83;;
21183;SDS011;18176;49.502;11.754;2022-11-15T16:11:52;35.70;;;21.97;;
21183;SDS011;18176;49.502;11.754;2022-11-15T16:15:52;34.90;;;22.30;;
21183;SDS011;18176;49.502;11.754;2022-11-15T16:19:54;30.27;;;17.93;;
21183;SDS011;18176;49.502;11.754;2022-11-15T16:23:54;26.50;;;16.07;;
21183;SDS011;18176;49.502;11.754;2022-11-15T16:27:57;27.43;;;17.03;;
21183;SDS011;18176;49.502;11.754;2022-11-15T16:31:57;28.50;;;16.47;;
21183;SDS011;18176;49.502;11.754;2022-11-15T16:35:57;31.20;;;18.77;;
21183;SDS011;18176;49.502;11.754;2022-11-15T16:39:57;36.43;;;22.07;;
21183;SDS011;18176;49.502;11.754;2022-11-15T16:44:00;37.07;;;21.77;;
21183;SDS011;18176;49.502;11.754;2022-11-15T16:48:00;44.37;;;23.93;;
21183;SDS011;18176;49.502;11.754;2022-11-15T16:52:03;44.17;;;27.00;;
21183;SDS011;18176;49.502;11.754;2022-11-15T16:56:03;49.17;;;28.90;;
21183;SDS011;18176;49.502;11.754;2022-11-15T17:00:19;46.03;;;26.50;;
21183;SDS011;18176;49.502;11.754;2022-11-15T17:04:20;49.27;;;29.53;;
21183;SDS011;18176;49.502;11.754;2022-11-15T17:08:23;49.47;;;29.73;;
21183;SDS011;18176;49.502;11.754;2022-11-15T17:12:24;45.90;;;29.47;;
21183;SDS011;18176;49.502;11.754;2022-11-15T17:16:28;54.87;;;29.60;;
21183;SDS011;18176;49.502;11.754;2022-11-15T17:20:30;53.23;;;28.93;;
21183;SDS011;18176;49.502;11.754;2022-11-15T17:24:31;47.77;;;28.10;;
21183;SDS011;18176;49.502;11.754;2022-11-15T17:28:32;178.87;;;109.83;;
21183;SDS011;18176;49.502;11.754;2022-11-15T17:32:36;573.23;;;398.37;;
21183;SDS011;18176;49.502;11.754;2022-11-15T17:36:37;524.10;;;340.63;;
21183;SDS011;18176;49.502;11.754;2022-11-15T17:40:37;111.87;;;64.73;;
21183;SDS011;18176;49.502;11.754;2022-11-15T17:44:37;91.63;;;54.47;;
21183;SDS011;18176;49.502;11.754;2022-11-15T17:48:40;60.90;;;34.17;;
21183;SDS011;18176;49.502;11.754;2022-11-15T17:52:40;50.10;;;31.53;;
21183;SDS011;18176;49.502;11.754;2022-11-15T17:56:40;63.90;;;36.90;;
21183;SDS011;18176;49.502;11.754;2022-11-15T18:00:40;61.30;;;35.40;;
21183;SDS011;18176;49.502;11.754;2022-11-15T18:04:43;52.07;;;27.83;;
21183;SDS011;18176;49.502;11.754;2022-11-15T18:08:44;357.47;;;235.73;;
21183;SDS011;18176;49.502;11.754;2022-11-15T18:12:46;1999.90;;;999.90;;
21183;SDS011;18176;49.502;11.754;2022-11-15T18:16:46;1999.90;;;999.90;;
21183;SDS011;18176;49.502;11.754;2022-11-15T18:20:49;220.70;;;142.90;;
21183;SDS011;18176;49.502;11.754;2022-11-15T18:24:59;60.13;;;37.50;;
21183;SDS011;18176;49.502;11.754;2022-11-15T18:29:01;53.07;;;34.03;;
21183;SDS011;18176;49.502;11.754;2022-11-15T18:33:02;59.97;;;34.87;;
21183;SDS011;18176;49.502;11.754;2022-11-15T18:37:05;38.00;;;24.87;;
21183;SDS011;18176;49.502;11.754;2022-11-15T18:41:06;47.50;;;29.03;;
21183;SDS011;18176;49.502;11.754;2022-11-15T18:45:09;40.03;;;26.13;;
21183;SDS011;18176;49.502;11.754;2022-11-15T18:49:10;42.03;;;24.63;;
21183;SDS011;18176;49.502;11.754;2022-11-15T18:53:17;42.87;;;26.97;;
21183;SDS011;18176;49.502;11.754;2022-11-15T18:57:18;40.03;;;23.80;;
21183;SDS011;18176;49.502;11.754;2022-11-15T19:01:19;37.60;;;23.10;;
21183;SDS011;18176;49.502;11.754;2022-11-15T19:05:21;39.80;;;25.63;;
21183;SDS011;18176;49.502;11.754;2022-11-15T19:09:24;46.77;;;28.27;;
21183;SDS011;18176;49.502;11.754;2022-11-15T19:13:28;49.17;;;31.77;;
21183;SDS011;18176;49.502;11.754;2022-11-15T19:17:29;50.67;;;31.20;;
21183;SDS011;18176;49.502;11.754;2022-11-15T19:21:32;49.63;;;30.77;;
21183;SDS011;18176;49.502;11.754;2022-11-15T19:25:36;53.13;;;32.70;;
21183;SDS011;18176;49.502;11.754;2022-11-15T19:29:36;52.07;;;30.60;;
21183;SDS011;18176;49.502;11.754;2022-11-15T19:33:37;35.93;;;22.47;;
21183;SDS011;18176;49.502;11.754;2022-11-15T19:37:39;30.17;;;17.20;;
21183;SDS011;18176;49.502;11.754;2022-11-15T19:41:42;33.17;;;18.13;;
21183;SDS011;18176;49.502;11.754;2022-11-15T19:45:43;24.83;;;15.07;;
21183;SDS011;18176;49.502;11.754;2022-11-15T19:49:57;20.40;;;12.90;;
21183;SDS011;18176;49.502;11.754;2022-11-15T19:53:58;25.20;;;16.23;;
21183;SDS011;18176;49.502;11.754;2022-11-15T19:58:04;30.07;;;18.27;;
21183;SDS011;18176;49.502;11.754;2022-11-15T20:02:05;32.93;;;21.17;;
21183;SDS011;18176;49.502;11.754;2022-11-15T20:06:07;40.50;;;22.47;;
21183;SDS011;18176;49.502;11.754;2022-11-15T20:10:11;36.47;;;20.67;;
21183;SDS011;18176;49.502;11.754;2022-11-15T20:14:18;34.10;;;17.60;;
21183;SDS011;18176;49.502;11.754;2022-11-15T20:18:19;23.67;;;13.90;;
21183;SDS011;18176;49.502;11.754;2022-11-15T20:22:24;32.23;;;19.70;;
21183;SDS011;18176;49.502;11.754;2022-11-15T20:26:24;33.77;;;20.53;;
21183;SDS011;18176;49.502;11.754;2022-11-15T20:30:28;36.27;;;20.07;;
21183;SDS011;18176;49.502;11.754;2022-11-15T20:34:28;37.33;;;20.83;;
21183;SDS011;18176;49.502;11.754;2022-11-15T20:38:28;29.17;;;17.73;;
21183;SDS011;18176;49.502;11.754;2022-11-15T20:42:30;22.97;;;13.87;;
21183;SDS011;18176;49.502;11.754;2022-11-15T20:46:33;22.23;;;13.70;;
21183;SDS011;18176;49.502;11.754;2022-11-15T20:50:33;21.93;;;13.20;;
21183;SDS011;18176;49.502;11.754;2022-11-15T20:54:39;20.60;;;12.47;;
21183;SDS011;18176;49.502;11.754;2022-11-15T20:58:39;14.17;;;8.50;;
21183;SDS011;18176;49.502;11.754;2022-11-15T21:02:43;13.67;;;8.40;;
21183;SDS011;18176;49.502;11.754;2022-11-15T21:06:43;11.70;;;8.20;;
21183;SDS011;18176;49.502;11.754;2022-11-15T21:10:47;12.40;;;8.70;;
21183;SDS011;18176;49.502;11.754;2022-11-15T21:15:06;12.07;;;8.33;;
21183;SDS011;18176;49.502;11.754;2022-11-15T21:19:10;12.67;;;8.40;;
21183;SDS011;18176;49.502;11.754;2022-11-15T21:23:10;12.93;;;8.30;;
21183;SDS011;18176;49.502;11.754;2022-11-15T21:27:11;14.00;;;8.53;;
21183;SDS011;18176;49.502;11.754;2022-11-15T21:31:11;16.00;;;10.90;;
21183;SDS011;18176;49.502;11.754;2022-11-15T21:35:13;13.17;;;8.47;;
21183;SDS011;18176;49.502;11.754;2022-11-15T21:39:14;11.43;;;7.70;;
21183;SDS011;18176;49.502;11.754;2022-11-15T21:43:14;13.10;;;8.23;;
21183;SDS011;18176;49.502;11.754;2022-11-15T21:47:15;12.57;;;8.03;;
21183;SDS011;18176;49.502;11.754;2022-11-15T21:51:17;11.00;;;7.80;;
21183;SDS011;18176;49.502;11.754;2022-11-15T21:55:18;14.43;;;9.20;;
21183;SDS011;18176;49.502;11.754;2022-11-15T21:59:18;11.70;;;7.87;;
21183;SDS011;18176;49.502;11.754;2022-11-15T22:03:18;11.10;;;7.60;;
21183;SDS011;18176;49.502;11.754;2022-11-15T22:07:21;13.80;;;7.60;;
21183;SDS011;18176;49.502;11.754;2022-11-15T22:11:21;15.53;;;9.20;;
21183;SDS011;18176;49.502;11.754;2022-11-15T22:15:21;14.80;;;8.80;;
21183;SDS011;18176;49.502;11.754;2022-11-15T22:19:22;14.17;;;8.97;;
21183;SDS011;18176;49.502;11.754;2022-11-15T22:23:25;15.23;;;8.67;;
21183;SDS011;18176;49.502;11.754;2022-11-15T22:27:27;22.63;;;14.57;;
21183;SDS011;18176;49.502;11.754;2022-11-15T22:31:27;15.90;;;10.13;;
21183;SDS011;18176;49.502;11.754;2022-11-15T22:35:27;14.70;;;9.47;;
21183;SDS011;18176;49.502;11.754;2022-11-15T22:39:30;16.60;;;9.80;;
21183;SDS011;18176;49.502;11.754;2022-11-15T22:43:31;14.10;;;9.10;;
21183;SDS011;18176;49.502;11.754;2022-11-15T22:47:32;16.47;;;8.77;;
21183;SDS011;18176;49.502;11.754;2022-11-15T22:51:32;13.47;;;8.80;;
21183;SDS011;18176;49.502;11.754;2022-11-15T22:55:37;13.90;;;9.07;;
21183;SDS011;18176;49.502;11.754;2022-11-15T22:59:38;16.83;;;11.37;;
21183;SDS011;18176;49.502;11.754;2022-11-15T23:03:38;14.73;;;9.60;;
21183;SDS011;18176;49.502;11.754;2022-11-15T23:07:38;14.23;;;9.40;;
21183;SDS011;18176;49.502;11.754;2022-11-15T23:11:41;14.40;;;9.97;;
21183;SDS011;18176;49.502;11.754;2022-11-15T23:15:59;17.87;;;10.63;;
21183;SDS011;18176;49.502;11.754;2022-11-15T23:20:15;14.57;;;9.80;;
21183;SDS011;18176;49.502;11.754;2022-11-15T23:24:36;15.83;;;10.10;;
21183;SDS011;18176;49.502;11.754;2022-11-15T23:28:39;18.60;;;10.90;;
21183;SDS011;18176;49.502;11.754;2022-11-15T23:32:39;18.47;;;10.23;;
21183;SDS011;18176;49.502;11.754;2022-11-15T23:36:51;20.43;;;12.33;;
21183;SDS011;18176;49.502;11.754;2022-11-15T23:40:52;19.17;;;11.73;;
21183;SDS011;18176;49.502;11.754;2022-11-15T23:44:56;20.67;;;11.53;;
21183;SDS011;18176;49.502;11.754;2022-11-15T23:48:56;17.37;;;10.53;;
21183;SDS011;18176;49.502;11.754;2022-11-15T23:52:56;18.23;;;10.77;;
21183;SDS011;18176;49.502;11.754;2022-11-15T23:56:56;21.97;;;12.23;;
